Time;durP1;ratioP1;P1;durP2;ratioP2;P2;SDS_P1;SDS_P2;PMS_P1;PMS_P2;Temp;Humidity;BMP_temperature;BMP_pressure;BME280_temperature;BME280_humidity;BME280_pressure;Samples;Min_cycle;Max_cycle;Signal;HPM_P1;HPM_P2
2021/04/17 00:00:17;;;;;;;33.53;22.87;;;;;;;5.23;82.63;100276.78;147720;1147;104463;-75
2021/04/17 00:03:20;;;;;;;31.95;21.33;;;;;;;5.20;82.10;100273.55;147718;1147;104551;-77
2021/04/17 00:06:23;;;;;;;33.88;21.75;;;;;;;5.17;82.36;100273.78;147668;1147;104550;-75
2021/04/17 00:09:28;;;;;;;30.45;20.32;;;;;;;5.24;82.49;100269.71;147339;1145;106095;-77
2021/04/17 00:12:31;;;;;;;30.93;22.57;;;;;;;5.27;82.60;100272.97;147654;1147;104570;-79
2021/04/17 00:15:34;;;;;;;34.75;23.67;;;;;;;5.31;82.25;100270.90;147725;1147;104544;-76
2021/04/17 00:18:37;;;;;;;37.53;22.25;;;;;;;5.39;82.72;100260.58;147504;1147;104470;-76
2021/04/17 00:21:40;;;;;;;34.15;22.90;;;;;;;5.47;82.39;100265.28;147471;1147;104463;-77
2021/04/17 00:24:44;;;;;;;63.83;30.05;;;;;;;5.46;81.86;100264.41;147735;1147;104591;-78
2021/04/17 00:27:47;;;;;;;88.87;36.73;;;;;;;5.41;82.20;100256.02;147390;1147;104665;-76
2021/04/17 00:30:50;;;;;;;61.33;30.20;;;;;;;5.42;82.06;100267.43;147284;1148;104502;-76
2021/04/17 00:33:53;;;;;;;42.93;26.02;;;;;;;5.44;82.54;100258.40;147539;1147;104547;-81
2021/04/17 00:36:56;;;;;;;34.60;22.23;;;;;;;5.48;82.63;100254.55;147793;1147;104580;-77
2021/04/17 00:39:59;;;;;;;32.53;21.12;;;;;;;5.54;81.84;100258.52;147594;1147;104611;-77
2021/04/17 00:43:02;;;;;;;31.20;21.05;;;;;;;5.58;82.61;100262.63;147735;1147;104521;-80
2021/04/17 00:46:06;;;;;;;32.33;21.02;;;;;;;5.59;81.61;100258.17;147731;1147;104493;-76
2021/04/17 00:49:11;;;;;;;30.80;21.62;;;;;;;5.54;81.80;100266.45;147758;1148;104489;-76
2021/04/17 00:52:15;;;;;;;37.03;22.73;;;;;;;5.54;81.96;100258.52;147725;1147;104575;-74
2021/04/17 00:55:18;;;;;;;39.35;22.93;;;;;;;5.50;81.49;100257.08;147737;1147;104550;-76
2021/04/17 00:58:21;;;;;;;36.08;21.65;;;;;;;5.50;81.62;100260.59;147775;1148;104565;-78
2021/04/17 01:01:24;;;;;;;32.40;20.70;;;;;;;5.53;81.65;100261.31;147683;1148;104541;-75
2021/04/17 01:04:33;;;;;;;30.80;20.60;;;;;;;5.55;81.95;100254.92;147704;1147;104482;-75
2021/04/17 01:07:40;;;;;;;31.27;20.68;;;;;;;5.57;82.12;100260.10;147670;1147;104529;-72
2021/04/17 01:10:48;;;;;;;37.17;22.95;;;;;;;5.49;81.81;100266.00;147797;1147;104912;-77
2021/04/17 01:13:52;;;;;;;28.80;19.73;;;;;;;5.47;81.83;100260.82;147751;1147;104510;-73
2021/04/17 01:16:57;;;;;;;32.43;21.37;;;;;;;5.40;81.61;100264.89;147813;1147;104442;-73
2021/04/17 01:20:12;;;;;;;35.38;22.10;;;;;;;5.43;82.28;100263.84;147714;1148;104540;-76
2021/04/17 01:23:22;;;;;;;28.47;20.32;;;;;;;5.53;81.87;100262.14;147713;1147;104521;-75
2021/04/17 01:26:27;;;;;;;29.05;21.37;;;;;;;5.59;81.62;100252.88;147711;1147;104624;-74
2021/04/17 01:29:31;;;;;;;30.77;21.57;;;;;;;5.53;81.52;100259.50;147715;1147;104554;-75
2021/04/17 01:32:35;;;;;;;29.27;19.13;;;;;;;5.52;82.10;100257.80;147719;1147;104465;-74
2021/04/17 01:35:39;;;;;;;28.05;19.73;;;;;;;5.54;81.98;100255.04;147733;1147;104458;-74
2021/04/17 01:38:46;;;;;;;24.47;17.95;;;;;;;5.56;81.98;100263.70;147739;1147;104441;-73
2021/04/17 01:41:53;;;;;;;29.12;19.95;;;;;;;5.63;81.84;100249.02;147761;1147;104617;-75
2021/04/17 01:44:57;;;;;;;31.25;22.87;;;;;;;5.73;81.43;100252.62;147741;1148;104460;-73
2021/04/17 01:48:02;;;;;;;39.00;26.03;;;;;;;5.78;81.46;100253.10;147730;1147;104466;-73
2021/04/17 01:51:06;;;;;;;34.85;21.85;;;;;;;5.79;81.34;100248.64;147505;1147;104534;-74
2021/04/17 01:54:18;;;;;;;31.73;21.60;;;;;;;5.80;81.08;100255.63;147417;1148;104485;-74
2021/04/17 01:57:27;;;;;;;36.83;24.02;;;;;;;5.79;81.12;100261.88;147728;1148;104543;-74
2021/04/17 02:00:31;;;;;;;38.05;25.00;;;;;;;5.68;81.45;100257.45;147818;1147;104625;-75
2021/04/17 02:03:35;;;;;;;37.23;24.87;;;;;;;5.65;81.33;100260.33;147593;1147;104516;-78
2021/04/17 02:06:38;;;;;;;44.53;28.02;;;;;;;5.61;81.57;100261.55;147243;1145;104486;-73
2021/04/17 02:09:41;;;;;;;36.17;24.52;;;;;;;5.48;81.31;100257.19;147462;1147;104433;-75
2021/04/17 02:12:44;;;;;;;36.38;23.52;;;;;;;5.46;81.25;100258.28;147560;1148;104623;-74
2021/04/17 02:15:48;;;;;;;47.07;26.63;;;;;;;5.49;81.75;100256.25;147761;1146;104878;-77
2021/04/17 02:18:59;;;;;;;48.70;29.37;;;;;;;5.42;81.33;100257.68;147588;1147;104542;-74
2021/04/17 02:22:03;;;;;;;37.65;25.23;;;;;;;5.32;81.71;100256.72;147528;1147;104466;-75
2021/04/17 02:25:09;;;;;;;40.27;26.60;;;;;;;5.32;81.75;100254.08;147738;1148;104445;-79
2021/04/17 02:28:12;;;;;;;38.78;26.85;;;;;;;5.29;81.77;100249.02;147771;1147;104633;-75
2021/04/17 02:31:17;;;;;;;42.05;25.10;;;;;;;5.23;82.07;100245.03;147487;1147;104454;-75
2021/04/17 02:34:23;;;;;;;51.80;29.30;;;;;;;5.22;81.82;100243.37;147464;1147;104860;-75
2021/04/17 02:37:26;;;;;;;36.58;24.37;;;;;;;5.23;81.61;100246.84;147759;1147;104490;-74
2021/04/17 02:40:29;;;;;;;37.45;25.20;;;;;;;5.19;81.80;100248.05;147758;1147;104492;-75
2021/04/17 02:43:32;;;;;;;40.58;27.73;;;;;;;5.15;81.84;100247.44;147710;1147;104620;-74
2021/04/17 02:46:35;;;;;;;47.53;30.00;;;;;;;5.10;81.86;100253.09;147579;1147;104535;-75
2021/04/17 02:49:39;;;;;;;43.65;26.70;;;;;;;5.04;82.08;100239.48;147602;1148;104497;-75
2021/04/17 02:52:42;;;;;;;34.90;22.82;;;;;;;5.07;82.39;100236.62;147717;1147;104466;-76
2021/04/17 02:55:45;;;;;;;35.08;22.73;;;;;;;5.14;82.24;100242.27;147758;1147;104544;-74
2021/04/17 02:58:49;;;;;;;37.38;23.80;;;;;;;5.21;82.13;100233.73;147731;1148;104435;-75
2021/04/17 03:01:52;;;;;;;39.27;25.60;;;;;;;5.34;81.99;100241.57;147749;1148;104548;-77
2021/04/17 03:04:55;;;;;;;36.60;25.00;;;;;;;5.44;81.87;100242.52;147724;1147;104503;-75
2021/04/17 03:07:58;;;;;;;36.70;25.27;;;;;;;5.37;81.26;100249.28;147689;1147;104478;-74
2021/04/17 03:11:01;;;;;;;38.48;26.10;;;;;;;5.30;81.62;100254.19;147733;1147;104545;-74
2021/04/17 03:14:04;;;;;;;38.55;24.32;;;;;;;5.22;81.82;100243.37;147730;1147;104619;-75
2021/04/17 03:17:08;;;;;;;36.83;23.17;;;;;;;5.17;82.10;100237.58;147782;1148;104471;-76
2021/04/17 03:20:13;;;;;;;46.35;26.12;;;;;;;5.13;81.86;100249.36;147778;1147;104480;-76
2021/04/17 03:23:16;;;;;;;47.95;27.45;;;;;;;5.10;81.96;100247.80;147791;1147;104519;-75
2021/04/17 03:26:19;;;;;;;64.58;32.55;;;;;;;5.08;81.65;100255.02;147774;1147;104904;-75
2021/04/17 03:29:22;;;;;;;49.13;27.17;;;;;;;5.06;81.95;100254.30;147758;1147;104555;-76
2021/04/17 03:32:26;;;;;;;47.53;26.90;;;;;;;4.96;82.45;100250.66;147752;1147;104549;-77
2021/04/17 03:35:30;;;;;;;31.45;21.40;;;;;;;4.95;81.70;100246.34;147742;1147;104540;-74
2021/04/17 03:38:34;;;;;;;33.03;20.93;;;;;;;5.02;82.47;100244.05;147764;1147;104503;-75
2021/04/17 03:41:37;;;;;;;33.08;21.48;;;;;;;5.05;82.03;100238.55;147761;1147;104469;-73
2021/04/17 03:44:40;;;;;;;44.05;25.95;;;;;;;5.05;82.25;100246.48;147696;1147;104622;-74
2021/04/17 03:47:44;;;;;;;46.30;27.82;;;;;;;5.00;82.08;100252.09;147749;1147;104492;-72
2021/04/17 03:50:47;;;;;;;47.50;26.82;;;;;;;4.96;82.24;100250.66;147731;1147;104553;-74
2021/04/17 03:53:52;;;;;;;43.13;24.67;;;;;;;4.97;82.74;100248.88;147745;1148;104528;-75
2021/04/17 03:56:55;;;;;;;50.38;25.97;;;;;;;4.99;82.39;100257.53;147726;1148;104671;-77
2021/04/17 03:59:58;;;;;;;35.97;20.87;;;;;;;4.99;82.58;100255.72;147574;1147;104621;-76
2021/04/17 04:03:02;;;;;;;44.70;25.15;;;;;;;5.01;82.35;100259.09;147734;1147;104465;-77
2021/04/17 04:06:06;;;;;;;51.00;28.50;;;;;;;5.03;81.98;100254.52;147843;1147;104543;-79
2021/04/17 04:09:09;;;;;;;45.73;24.32;;;;;;;5.04;82.33;100260.64;147757;1148;104476;-77
2021/04/17 04:12:13;;;;;;;66.17;30.82;;;;;;;5.02;82.35;100266.08;147795;1147;104584;-80
2021/04/17 04:15:16;;;;;;;35.45;20.10;;;;;;;5.04;82.36;100269.45;147763;1148;104461;-77
2021/04/17 04:18:21;;;;;;;40.80;22.58;;;;;;;5.11;82.40;100260.05;147769;1147;104464;-79
2021/04/17 04:21:24;;;;;;;39.00;21.97;;;;;;;5.16;82.37;100272.08;147787;1147;104550;-78
2021/04/17 04:24:27;;;;;;;51.88;28.07;;;;;;;5.16;82.28;100277.37;147735;1147;104546;-75
2021/04/17 04:27:30;;;;;;;48.08;26.07;;;;;;;5.10;82.19;100276.91;147749;1148;104545;-79
2021/04/17 04:30:34;;;;;;;30.90;18.57;;;;;;;5.06;82.28;100277.23;147704;1147;104550;-76
2021/04/17 04:33:37;;;;;;;42.00;23.10;;;;;;;5.10;82.42;100268.97;147465;1147;104451;-76
2021/04/17 04:36:40;;;;;;;21.25;15.30;;;;;;;5.19;82.16;100266.56;147554;1147;104582;-77
2021/04/17 04:39:43;;;;;;;27.50;18.23;;;;;;;5.26;82.25;100273.91;147369;1147;104469;-80
2021/04/17 04:42:47;;;;;;;25.00;17.30;;;;;;;5.35;82.47;100277.66;147571;1147;104555;-79
2021/04/17 04:45:50;;;;;;;32.42;20.20;;;;;;;5.43;82.23;100279.72;147578;1147;104608;-81
2021/04/17 04:48:53;;;;;;;31.23;18.75;;;;;;;5.39;82.34;100273.81;147384;1148;104561;-85
2021/04/17 04:51:56;;;;;;;42.97;23.03;;;;;;;5.38;81.55;100287.16;147760;1147;104531;-81
2021/04/17 04:54:59;;;;;;;53.45;25.12;;;;;;;5.36;81.91;100289.91;147298;1147;104949;-75
2021/04/17 04:58:02;;;;;;;61.37;27.60;;;;;;;5.35;82.19;100288.25;147740;1147;104544;-75
2021/04/17 05:01:06;;;;;;;31.33;19.92;;;;;;;5.37;82.32;100291.62;147736;1147;104611;-74
2021/04/17 05:04:09;;;;;;;42.13;23.03;;;;;;;5.38;82.49;100287.99;147799;1147;104590;-72
2021/04/17 05:07:12;;;;;;;38.47;20.63;;;;;;;5.40;82.30;100291.36;147629;1147;104479;-75
2021/04/17 05:10:15;;;;;;;24.52;15.75;;;;;;;5.44;81.96;100284.86;147384;1146;104466;-78
2021/04/17 05:13:19;;;;;;;27.35;18.92;;;;;;;5.55;82.40;100280.56;147246;1145;104461;-75
2021/04/17 05:16:22;;;;;;;22.80;15.58;;;;;;;5.62;81.95;100277.31;147678;1147;104606;-74
2021/04/17 05:19:25;;;;;;;57.60;27.25;;;;;;;5.70;82.75;100279.35;147800;1148;104484;-77
2021/04/17 05:22:29;;;;;;;37.83;21.33;;;;;;;5.83;82.12;100284.50;147754;1147;104482;-78
2021/04/17 05:25:32;;;;;;;56.18;27.98;;;;;;;5.85;82.24;100282.56;147557;1147;104458;-76
2021/04/17 05:28:35;;;;;;;26.10;18.40;;;;;;;5.74;81.43;100285.25;147547;1148;104467;-73
2021/04/17 05:31:38;;;;;;;35.17;18.83;;;;;;;5.68;82.22;100290.06;147768;1148;104730;-75
2021/04/17 05:34:41;;;;;;;56.53;25.53;;;;;;;5.68;82.04;100290.06;147732;1147;104538;-74
2021/04/17 05:37:44;;;;;;;67.82;31.20;;;;;;;5.69;81.73;100288.24;147573;1147;104460;-75
2021/04/17 05:40:48;;;;;;;42.85;24.18;;;;;;;5.74;82.56;100278.14;147748;1148;104510;-73
2021/04/17 05:43:51;;;;;;;45.55;23.95;;;;;;;5.77;81.61;100288.47;147728;1147;105001;-73
2021/04/17 05:46:54;;;;;;;53.33;27.50;;;;;;;5.73;82.01;100294.98;147216;1147;104560;-72
2021/04/17 05:49:57;;;;;;;44.30;23.60;;;;;;;5.73;82.81;100292.33;147278;1147;104948;-74
2021/04/17 05:53:00;;;;;;;33.50;19.85;;;;;;;5.81;82.59;100289.08;147231;1147;104559;-73
2021/04/17 05:56:04;;;;;;;38.73;22.40;;;;;;;5.84;82.52;100299.44;147741;1147;104564;-74
2021/04/17 05:59:07;;;;;;;30.80;20.60;;;;;;;5.93;82.31;100297.84;147778;1147;104533;-72
2021/04/17 06:02:11;;;;;;;35.52;22.73;;;;;;;5.91;82.29;100295.34;147723;1147;104524;-73
2021/04/17 06:05:15;;;;;;;34.73;21.68;;;;;;;5.96;82.07;100295.00;147775;1148;104489;-73
2021/04/17 06:08:18;;;;;;;43.77;24.07;;;;;;;5.98;82.54;100301.02;147535;1147;104516;-73
2021/04/17 06:11:22;;;;;;;36.35;21.35;;;;;;;6.00;82.49;100304.38;147695;1147;104547;-72
2021/04/17 06:14:25;;;;;;;29.82;20.00;;;;;;;6.07;82.31;100295.81;147697;1147;104455;-75
2021/04/17 06:17:28;;;;;;;47.60;26.23;;;;;;;6.10;82.19;100294.72;147607;1147;104444;-77
2021/04/17 06:20:32;;;;;;;29.27;18.27;;;;;;;6.15;81.92;100289.91;147468;1147;104569;-74
2021/04/17 06:23:35;;;;;;;27.42;18.35;;;;;;;6.17;82.03;100301.22;147269;1147;104470;-79
2021/04/17 06:26:39;;;;;;;30.25;18.17;;;;;;;6.14;82.07;100311.22;147452;1145;104466;-80
2021/04/17 06:29:42;;;;;;;29.20;18.20;;;;;;;6.10;81.61;100305.31;147523;1147;104547;-79
2021/04/17 06:32:45;;;;;;;26.37;17.82;;;;;;;6.05;81.68;100312.81;147600;1146;104630;-78
2021/04/17 06:35:48;;;;;;;35.57;22.13;;;;;;;5.99;81.58;100321.25;147372;1146;104605;-77
2021/04/17 06:38:51;;;;;;;40.80;24.00;;;;;;;5.94;82.40;100310.97;147340;1147;104525;-79
2021/04/17 06:41:56;;;;;;;35.30;19.93;;;;;;;5.90;83.16;100315.66;147559;1147;104525;-74
2021/04/17 06:45:01;;;;;;;33.37;20.03;;;;;;;5.93;82.42;100316.39;147840;1147;104489;-72
2021/04/17 06:48:07;;;;;;;35.30;21.15;;;;;;;6.01;82.34;100314.86;147781;1147;104642;-75
2021/04/17 06:51:17;;;;;;;30.92;19.40;;;;;;;6.07;82.97;100306.42;147596;1147;104549;-75
2021/04/17 06:54:23;;;;;;;36.17;22.73;;;;;;;6.08;81.77;100308.11;147611;1146;104552;-73
2021/04/17 06:57:26;;;;;;;38.70;23.67;;;;;;;6.11;82.10;100307.02;147261;1147;104549;-72
2021/04/17 07:00:29;;;;;;;32.73;19.65;;;;;;;6.14;82.12;100312.08;147260;1146;104540;-69
2021/04/17 07:03:33;;;;;;;35.80;22.02;;;;;;;6.14;81.87;100308.56;147093;1147;104623;-69
2021/04/17 07:06:37;;;;;;;36.50;23.80;;;;;;;6.25;83.08;100312.03;147648;1146;104925;-70
2021/04/17 07:09:40;;;;;;;36.80;24.37;;;;;;;6.38;82.25;100308.41;147665;1147;104608;-70
2021/04/17 07:12:45;;;;;;;33.75;21.73;;;;;;;6.45;82.57;100309.60;147675;1147;104479;-73
2021/04/17 07:15:48;;;;;;;37.98;24.32;;;;;;;6.37;81.80;100315.52;147709;1147;104617;-73
2021/04/17 07:18:53;;;;;;;42.47;23.63;;;;;;;6.29;81.54;100321.45;147735;1148;104447;-73
2021/04/17 07:22:15;;;;;;;33.80;21.17;;;;;;;6.29;82.19;100321.45;147794;1147;104484;-72
2021/04/17 07:25:21;;;;;;;39.20;25.57;;;;;;;6.26;81.96;100318.20;147670;1147;104484;-70
2021/04/17 07:28:24;;;;;;;32.23;22.23;;;;;;;6.31;81.93;100334.55;147593;1147;104556;-73
2021/04/17 07:31:29;;;;;;;30.65;20.62;;;;;;;6.32;82.87;100330.11;147767;1147;104442;-74
2021/04/17 07:34:32;;;;;;;29.57;17.50;;;;;;;6.43;82.83;100324.79;147643;1146;104513;-70
2021/04/17 07:37:36;;;;;;;31.85;20.17;;;;;;;6.44;82.09;100329.11;147384;1147;104493;-72
2021/04/17 07:40:40;;;;;;;32.07;20.83;;;;;;;6.44;82.86;100326.45;147715;1147;104432;-69
2021/04/17 07:44:02;;;;;;;33.15;22.22;;;;;;;6.47;82.16;100336.83;147398;1147;104538;-72
2021/04/17 07:47:05;;;;;;;;;;;;;;;6.41;82.25;100335.51;147655;1146;104544;-73
2021/04/17 07:50:11;;;;;;;33.08;22.75;;;;;;;6.41;81.68;100337.30;147718;1147;104847;-71
2021/04/17 07:53:27;;;;;;;33.92;20.27;;;;;;;6.28;82.91;100346.25;147696;1148;104470;-70
2021/04/17 07:56:34;;;;;;;32.50;20.37;;;;;;;6.22;82.19;100337.96;147671;1147;104449;-71
2021/04/17 07:59:38;;;;;;;30.93;20.73;;;;;;;6.28;82.25;100340.95;147702;1146;104566;-71
2021/04/17 08:02:43;;;;;;;35.67;22.73;;;;;;;6.35;83.00;100341.31;147501;1148;104528;-70
2021/04/17 08:05:47;;;;;;;35.33;24.15;;;;;;;6.40;83.11;100338.28;147194;1147;104612;-69
2021/04/17 08:08:51;;;;;;;38.35;21.70;;;;;;;6.42;82.23;100345.13;147121;1146;104537;-68
2021/04/17 08:11:57;;;;;;;33.15;20.82;;;;;;;6.44;82.22;100342.36;147277;1147;104461;-71
2021/04/17 08:15:00;;;;;;;33.33;22.73;;;;;;;6.51;83.01;100353.33;147523;1147;104519;-72
2021/04/17 08:18:05;;;;;;;40.63;25.25;;;;;;;6.62;82.96;100350.61;147316;1147;104519;-72
2021/04/17 08:21:11;;;;;;;40.10;25.85;;;;;;;6.72;82.83;100348.05;147307;1147;104541;-73
2021/04/17 08:24:15;;;;;;;46.25;28.87;;;;;;;6.81;82.06;100349.95;147432;1147;104535;-72
2021/04/17 08:27:18;;;;;;;37.00;22.37;;;;;;;6.87;81.75;100349.44;147858;1145;104473;-75
2021/04/17 08:30:24;;;;;;;39.50;23.30;;;;;;;7.00;82.40;100358.06;147298;1147;104444;-71
2021/04/17 08:33:27;;;;;;;57.40;38.47;;;;;;;7.11;82.35;100359.84;147249;1147;104442;-70
2021/04/17 08:36:34;;;;;;;54.37;37.03;;;;;;;7.23;81.67;100358.80;147049;1147;104646;-69
2021/04/17 08:39:50;;;;;;;37.05;25.43;;;;;;;7.34;81.72;100359.73;147802;1147;104472;-71
2021/04/17 08:42:53;;;;;;;42.33;27.87;;;;;;;7.39;81.50;100357.50;147684;1147;104519;-70
2021/04/17 08:46:03;;;;;;;38.65;23.00;;;;;;;7.38;81.01;100354.02;147799;1147;104448;-72
2021/04/17 08:49:21;;;;;;;41.63;23.65;;;;;;;7.35;81.93;100348.98;147958;1147;104573;-68
2021/04/17 08:52:25;;;;;;;39.43;25.47;;;;;;;7.40;81.02;100360.03;147328;1147;104629;-70
2021/04/17 08:55:30;;;;;;;36.70;24.60;;;;;;;7.52;81.69;100368.77;147644;1147;104966;-67
2021/04/17 08:58:33;;;;;;;36.75;25.12;;;;;;;7.60;81.30;100354.83;147641;1147;104454;-71
2021/04/17 09:01:41;;;;;;;44.13;27.42;;;;;;;7.63;81.59;100365.20;147569;1146;104574;-69
2021/04/17 09:05:01;;;;;;;40.83;24.10;;;;;;;7.69;81.62;100358.53;147326;1147;104541;-71
2021/04/17 09:08:14;;;;;;;35.68;22.75;;;;;;;7.71;80.91;100354.75;147510;1147;104601;-69
2021/04/17 09:11:36;;;;;;;36.93;24.50;;;;;;;7.80;81.43;100356.63;147404;1147;104458;-72
2021/04/17 09:14:57;;;;;;;39.78;25.23;;;;;;;7.92;80.96;100353.88;147803;1147;104476;-71
2021/04/17 09:18:00;;;;;;;37.67;25.20;;;;;;;7.95;81.24;100361.57;147778;1147;104701;-71
2021/04/17 09:21:36;;;;;;;43.45;27.32;;;;;;;7.95;80.57;100358.91;147813;1148;104550;-74
2021/04/17 09:24:43;;;;;;;34.25;19.52;;;;;;;7.99;81.16;100360.36;147683;1147;104623;-69
2021/04/17 09:27:51;;;;;;;28.40;17.17;;;;;;;8.05;80.18;100360.64;147363;1146;104528;-70
2021/04/17 09:30:55;;;;;;;30.60;20.43;;;;;;;8.15;81.16;100355.36;147627;1146;104473;-70
2021/04/17 09:34:00;;;;;;;37.35;23.52;;;;;;;8.25;80.66;100356.22;148253;1147;104493;-69
2021/04/17 09:37:11;;;;;;;40.98;27.15;;;;;;;8.32;80.55;100366.34;147630;1147;104535;-69
2021/04/17 09:40:15;;;;;;;43.65;27.02;;;;;;;8.40;80.22;100364.66;147406;1147;104652;-71
2021/04/17 09:43:29;;;;;;;44.27;24.77;;;;;;;8.36;80.64;100367.75;147675;1147;104497;-71
2021/04/17 09:46:33;;;;;;;41.33;24.72;;;;;;;8.36;80.74;100373.06;147305;1147;104543;-69
2021/04/17 09:49:38;;;;;;;42.55;25.85;;;;;;;8.45;80.49;100377.60;147572;1147;104467;-69
2021/04/17 09:52:41;;;;;;;41.25;25.92;;;;;;;8.58;80.35;100374.67;147572;1148;104466;-69
2021/04/17 09:56:03;;;;;;;40.63;25.00;;;;;;;8.53;80.42;100375.09;147287;1147;104553;-70
2021/04/17 09:59:09;;;;;;;42.98;27.25;;;;;;;8.44;80.05;100366.10;147634;1147;104468;-69
2021/04/17 10:02:14;;;;;;;41.83;27.43;;;;;;;8.56;80.81;100366.82;147633;1147;104497;-69
2021/04/17 10:05:32;;;;;;;41.05;23.55;;;;;;;8.61;79.89;100377.06;147630;1148;104546;-70
2021/04/17 10:08:36;;;;;;;36.33;21.50;;;;;;;8.77;80.94;100368.54;147536;1147;104533;-70
2021/04/17 10:11:41;;;;;;;37.23;25.50;;;;;;;9.06;80.78;100367.71;147152;1148;104596;-69
2021/04/17 10:14:44;;;;;;;33.23;22.05;;;;;;;9.31;80.28;100367.13;147445;1148;104426;-70
2021/04/17 10:17:49;;;;;;;30.30;20.90;;;;;;;9.44;80.35;100362.34;147055;1147;104470;-70
2021/04/17 10:20:52;;;;;;;36.65;23.07;;;;;;;9.49;79.09;100361.06;147444;1147;104470;-69
2021/04/17 10:24:18;;;;;;;32.48;20.85;;;;;;;9.27;78.83;100370.22;147418;1147;104852;-70
2021/04/17 10:27:25;;;;;;;26.35;16.97;;;;;;;9.26;79.36;100371.19;147352;1147;104611;-69
2021/04/17 10:30:32;;;;;;;26.70;17.33;;;;;;;9.37;79.30;100369.24;147438;1147;104559;-69
2021/04/17 10:33:41;;;;;;;32.03;20.62;;;;;;;9.46;79.07;100367.53;147436;1147;104495;-70
2021/04/17 10:36:54;;;;;;;29.00;19.47;;;;;;;9.46;79.46;100380.02;147427;1147;104468;-69
2021/04/17 10:40:05;;;;;;;29.80;21.02;;;;;;;9.50;78.73;100374.24;147313;1147;104550;-69
2021/04/17 10:43:08;;;;;;;31.25;21.60;;;;;;;9.36;79.32;100375.53;147291;1147;104468;-69
2021/04/17 10:46:11;;;;;;;32.40;21.85;;;;;;;9.29;79.42;100381.57;147330;1147;104568;-70
2021/04/17 10:49:28;;;;;;;33.58;19.98;;;;;;;9.38;79.86;100380.73;146916;1147;104565;-70
2021/04/17 10:52:33;;;;;;;28.32;17.32;;;;;;;9.58;80.01;100379.72;147261;1147;104544;-70
2021/04/17 10:55:40;;;;;;;24.07;17.52;;;;;;;9.65;79.22;100382.63;147368;1147;104531;-69
2021/04/17 10:58:45;;;;;;;31.57;20.40;;;;;;;9.73;79.12;100389.91;147360;1148;104732;-70
2021/04/17 11:01:48;;;;;;;28.95;19.70;;;;;;;9.75;79.30;100383.44;147498;1147;104469;-70
2021/04/17 11:04:52;;;;;;;28.12;19.20;;;;;;;9.79;79.12;100384.83;147461;1147;104473;-70
2021/04/17 11:08:00;;;;;;;24.77;17.17;;;;;;;9.78;79.04;100388.49;147335;1148;105036;-70
2021/04/17 11:11:10;;;;;;;28.55;19.35;;;;;;;9.86;78.87;100387.77;147429;1147;104534;-70
2021/04/17 11:14:21;;;;;;;29.27;18.63;;;;;;;9.80;79.08;100389.19;147334;1147;104516;-69
2021/04/17 11:17:24;;;;;;;28.47;17.90;;;;;;;9.65;77.94;100393.29;146922;1147;104550;-70
2021/04/17 11:20:29;;;;;;;28.85;19.73;;;;;;;9.47;78.11;100392.33;147342;1147;104445;-69
2021/04/17 11:23:45;;;;;;;55.30;32.53;;;;;;;9.36;78.16;100391.52;147439;1147;104492;-71
2021/04/17 11:26:48;;;;;;;33.00;21.95;;;;;;;9.21;78.53;100399.08;147551;1147;104515;-71
2021/04/17 11:29:51;;;;;;;32.10;21.47;;;;;;;9.19;79.48;100394.89;146881;1148;104662;-68
2021/04/17 11:32:55;;;;;;;28.07;20.05;;;;;;;9.24;79.08;100411.30;147402;1148;104884;-70
2021/04/17 11:35:58;;;;;;;29.37;19.95;;;;;;;9.34;79.28;100406.80;147516;1148;104459;-70
2021/04/17 11:39:02;;;;;;;27.40;18.55;;;;;;;9.38;79.45;100407.36;147626;1148;104506;-69
2021/04/17 11:42:10;;;;;;;31.15;21.65;;;;;;;9.49;78.82;100404.55;147394;1147;104531;-71
2021/04/17 11:45:15;;;;;;;50.23;34.48;;;;;;;9.54;79.17;100404.11;147460;1147;104648;-70
2021/04/17 11:48:19;;;;;;;35.58;23.52;;;;;;;9.63;78.72;100413.91;147618;1148;104525;-72
2021/04/17 11:51:23;;;;;;;24.05;17.92;;;;;;;9.68;78.22;100408.14;147596;1147;104460;-69
2021/04/17 11:54:26;;;;;;;25.57;16.95;;;;;;;9.60;79.22;100417.71;147274;1147;104547;-69
2021/04/17 11:57:29;;;;;;;27.75;17.50;;;;;;;9.53;79.06;100415.77;147617;1147;104455;-70
2021/04/17 12:00:32;;;;;;;25.77;15.77;;;;;;;9.34;78.59;100414.78;147493;1147;104598;-70
2021/04/17 12:03:36;;;;;;;22.93;14.23;;;;;;;9.32;78.80;100418.58;147480;1148;104492;-70
2021/04/17 12:06:40;;;;;;;26.45;17.60;;;;;;;9.33;79.42;100415.75;147485;1147;104544;-69
2021/04/17 12:09:43;;;;;;;34.67;23.50;;;;;;;9.35;78.68;100410.29;147424;1147;104560;-69
2021/04/17 12:12:47;;;;;;;29.00;19.97;;;;;;;9.46;79.62;100411.98;146949;1148;104551;-69
2021/04/17 12:15:51;;;;;;;30.97;20.50;;;;;;;9.58;79.32;100416.16;147105;1147;104507;-70
2021/04/17 12:18:54;;;;;;;30.00;20.12;;;;;;;9.59;79.17;100410.69;147205;1146;104522;-70
2021/04/17 12:21:57;;;;;;;26.07;16.42;;;;;;;9.54;78.74;100410.27;147671;1147;104468;-70
2021/04/17 12:25:01;;;;;;;26.10;16.20;;;;;;;9.53;78.89;100411.27;147512;1147;104550;-69
2021/04/17 12:28:05;;;;;;;26.80;17.63;;;;;;;9.51;78.34;100415.06;147414;1147;104477;-69
2021/04/17 12:31:09;;;;;;;29.07;17.80;;;;;;;9.57;79.07;100403.83;147593;1147;104604;-71
2021/04/17 12:34:12;;;;;;;25.12;16.25;;;;;;;9.66;79.02;100412.77;147286;1147;104457;-72
2021/04/17 12:37:15;;;;;;;24.25;17.00;;;;;;;9.75;79.26;100404.75;147640;1146;104943;-70
2021/04/17 12:40:19;;;;;;;23.15;15.68;;;;;;;9.88;78.17;100404.45;147583;1148;104584;-70
2021/04/17 12:43:23;;;;;;;23.17;16.13;;;;;;;9.92;78.73;100405.84;147402;1146;104551;-69
2021/04/17 12:46:27;;;;;;;23.13;15.97;;;;;;;10.06;78.05;100396.52;147105;1146;104594;-69
2021/04/17 12:49:30;;;;;;;61.48;38.02;;;;;;;10.22;78.46;100402.08;147506;1148;104611;-70
2021/04/17 12:52:33;;;;;;;25.80;17.07;;;;;;;10.35;78.13;100400.92;147122;1148;104506;-69
2021/04/17 12:55:37;;;;;;;22.42;15.10;;;;;;;10.31;77.85;100405.70;147284;1147;104550;-71
2021/04/17 12:58:40;;;;;;;22.50;15.03;;;;;;;10.39;77.96;100410.30;147167;1147;104471;-71
2021/04/17 13:01:45;;;;;;;32.38;22.62;;;;;;;10.44;78.25;100402.70;147646;1147;104563;-72
2021/04/17 13:04:48;;;;;;;24.25;16.60;;;;;;;10.50;78.18;100407.44;147618;1148;104516;-69
2021/04/17 13:07:52;;;;;;;24.12;16.23;;;;;;;10.43;77.53;100403.71;147243;1147;104553;-70
2021/04/17 13:10:55;;;;;;;24.77;17.27;;;;;;;10.34;77.47;100407.27;147620;1147;104543;-71
2021/04/17 13:13:59;;;;;;;22.22;14.25;;;;;;;10.28;77.80;100405.98;147581;1147;104586;-69
2021/04/17 13:17:02;;;;;;;24.92;16.65;;;;;;;10.21;77.71;100415.56;147288;1147;104687;-69
2021/04/17 13:20:07;;;;;;;23.05;16.23;;;;;;;10.23;77.85;100406.41;147101;1147;104512;-70
2021/04/17 13:23:11;;;;;;;21.00;14.05;;;;;;;10.38;77.99;100405.97;147243;1147;104451;-70
2021/04/17 13:26:17;;;;;;;23.15;16.32;;;;;;;10.47;78.00;100410.42;147579;1148;104557;-69
2021/04/17 13:29:20;;;;;;;25.25;16.07;;;;;;;10.51;77.73;100409.14;147615;1148;104532;-69
2021/04/17 13:32:23;;;;;;;26.23;18.10;;;;;;;10.51;77.55;100403.80;147540;1147;104524;-71
2021/04/17 13:35:27;;;;;;;24.55;15.93;;;;;;;10.51;77.41;100401.12;147452;1148;104518;-69
2021/04/17 13:38:30;;;;;;;25.15;15.60;;;;;;;10.59;77.46;100403.05;147367;1148;104531;-70
2021/04/17 13:41:33;;;;;;;22.32;14.55;;;;;;;10.69;77.07;100405.66;147231;1147;104554;-69
2021/04/17 13:44:37;;;;;;;23.92;15.35;;;;;;;10.71;77.08;100396.50;147410;1147;104466;-69
2021/04/17 13:47:40;;;;;;;22.30;15.23;;;;;;;10.76;77.92;100404.08;147251;1147;104454;-70
2021/04/17 13:50:43;;;;;;;23.35;16.57;;;;;;;10.89;77.23;100407.19;147176;1148;104550;-69